sensor_id;sensor_type;location;lat;lon;timestamp;temperature;humidity
68801;SHT31;55784;50.734;7.086;2023-08-07T00:00:20;13.99;87.78
68801;SHT31;55784;50.734;7.086;2023-08-07T00:02:45;13.96;87.65
68801;SHT31;55784;50.734;7.086;2023-08-07T00:05:11;13.95;87.90
68801;SHT31;55784;50.734;7.086;2023-08-07T00:07:36;13.95;87.89
68801;SHT31;55784;50.734;7.086;2023-08-07T00:10:01;13.87;88.40
68801;SHT31;55784;50.734;7.086;2023-08-07T00:12:28;13.86;88.60
68801;SHT31;55784;50.734;7.086;2023-08-07T00:14:53;13.86;88.60
68801;SHT31;55784;50.734;7.086;2023-08-07T00:17:19;13.89;88.12
68801;SHT31;55784;50.734;7.086;2023-08-07T00:19:44;13.87;88.66
68801;SHT31;55784;50.734;7.086;2023-08-07T00:22:09;13.87;88.18
68801;SHT31;55784;50.734;7.086;2023-08-07T00:24:35;13.85;88.33
68801;SHT31;55784;50.734;7.086;2023-08-07T00:27:00;13.85;88.23
68801;SHT31;55784;50.734;7.086;2023-08-07T00:29:25;13.85;87.96
68801;SHT31;55784;50.734;7.086;2023-08-07T00:31:51;13.86;88.20
68801;SHT31;55784;50.734;7.086;2023-08-07T00:34:16;13.89;87.72
68801;SHT31;55784;50.734;7.086;2023-08-07T00:36:41;13.87;87.56
68801;SHT31;55784;50.734;7.086;2023-08-07T00:39:07;13.87;87.60
68801;SHT31;55784;50.734;7.086;2023-08-07T00:41:33;13.92;87.52
68801;SHT31;55784;50.734;7.086;2023-08-07T00:43:58;13.92;87.79
68801;SHT31;55784;50.734;7.086;2023-08-07T00:46:24;13.96;87.50
68801;SHT31;55784;50.734;7.086;2023-08-07T00:48:51;13.93;87.66
68801;SHT31;55784;50.734;7.086;2023-08-07T00:51:16;13.93;87.32
68801;SHT31;55784;50.734;7.086;2023-08-07T00:53:42;13.93;87.38
68801;SHT31;55784;50.734;7.086;2023-08-07T00:56:08;13.92;87.80
68801;SHT31;55784;50.734;7.086;2023-08-07T00:58:33;13.87;87.82
68801;SHT31;55784;50.734;7.086;2023-08-07T01:00:59;13.89;88.04
68801;SHT31;55784;50.734;7.086;2023-08-07T01:03:24;13.89;88.21
68801;SHT31;55784;50.734;7.086;2023-08-07T01:05:50;13.86;87.76
68801;SHT31;55784;50.734;7.086;2023-08-07T01:08:15;13.87;88.18
68801;SHT31;55784;50.734;7.086;2023-08-07T01:14:12;13.82;87.66
68801;SHT31;55784;50.734;7.086;2023-08-07T01:16:47;13.87;87.55
68801;SHT31;55784;50.734;7.086;2023-08-07T01:19:23;13.86;87.61
68801;SHT31;55784;50.734;7.086;2023-08-07T01:21:49;13.87;87.34
68801;SHT31;55784;50.734;7.086;2023-08-07T01:27:36;13.85;87.51
68801;SHT31;55784;50.734;7.086;2023-08-07T01:35:43;13.79;87.24
68801;SHT31;55784;50.734;7.086;2023-08-07T01:38:11;13.79;87.31
68801;SHT31;55784;50.734;7.086;2023-08-07T01:40:37;13.83;87.54
68801;SHT31;55784;50.734;7.086;2023-08-07T01:43:03;13.79;87.21
68801;SHT31;55784;50.734;7.086;2023-08-07T01:45:28;13.80;87.43
68801;SHT31;55784;50.734;7.086;2023-08-07T01:47:54;13.78;87.26
68801;SHT31;55784;50.734;7.086;2023-08-07T01:50:21;13.80;87.35
68801;SHT31;55784;50.734;7.086;2023-08-07T01:52:46;13.86;87.13
68801;SHT31;55784;50.734;7.086;2023-08-07T01:55:13;13.83;86.93
68801;SHT31;55784;50.734;7.086;2023-08-07T01:57:39;13.89;87.14
68801;SHT31;55784;50.734;7.086;2023-08-07T02:00:05;13.92;86.91
68801;SHT31;55784;50.734;7.086;2023-08-07T02:02:30;13.90;86.80
68801;SHT31;55784;50.734;7.086;2023-08-07T02:04:55;13.87;86.62
68801;SHT31;55784;50.734;7.086;2023-08-07T02:07:21;13.92;86.93
68801;SHT31;55784;50.734;7.086;2023-08-07T02:09:46;13.93;86.19
68801;SHT31;55784;50.734;7.086;2023-08-07T02:12:11;13.93;86.65
68801;SHT31;55784;50.734;7.086;2023-08-07T02:14:37;13.95;86.55
68801;SHT31;55784;50.734;7.086;2023-08-07T02:17:02;13.98;86.48
68801;SHT31;55784;50.734;7.086;2023-08-07T02:19:27;13.98;86.81
68801;SHT31;55784;50.734;7.086;2023-08-07T02:21:53;13.96;86.46
68801;SHT31;55784;50.734;7.086;2023-08-07T02:24:18;13.93;86.97
68801;SHT31;55784;50.734;7.086;2023-08-07T02:26:45;13.93;86.63
68801;SHT31;55784;50.734;7.086;2023-08-07T02:29:10;13.93;87.06
68801;SHT31;55784;50.734;7.086;2023-08-07T02:31:35;13.92;86.97
68801;SHT31;55784;50.734;7.086;2023-08-07T02:34:01;13.89;87.20
68801;SHT31;55784;50.734;7.086;2023-08-07T02:36:26;13.92;86.96
68801;SHT31;55784;50.734;7.086;2023-08-07T02:38:51;13.89;86.86
68801;SHT31;55784;50.734;7.086;2023-08-07T02:41:16;13.87;86.93
68801;SHT31;55784;50.734;7.086;2023-08-07T02:43:42;13.90;87.05
68801;SHT31;55784;50.734;7.086;2023-08-07T02:46:08;13.90;86.28
68801;SHT31;55784;50.734;7.086;2023-08-07T02:48:33;13.89;86.29
68801;SHT31;55784;50.734;7.086;2023-08-07T02:50:58;13.89;86.15
68801;SHT31;55784;50.734;7.086;2023-08-07T02:53:24;13.92;86.52
68801;SHT31;55784;50.734;7.086;2023-08-07T02:55:49;13.92;85.72
68801;SHT31;55784;50.734;7.086;2023-08-07T02:58:14;13.93;86.38
68801;SHT31;55784;50.734;7.086;2023-08-07T03:00:39;13.87;86.04
68801;SHT31;55784;50.734;7.086;2023-08-07T03:03:05;13.89;86.16
68801;SHT31;55784;50.734;7.086;2023-08-07T03:05:30;13.90;86.09
68801;SHT31;55784;50.734;7.086;2023-08-07T03:07:55;13.86;86.26
68801;SHT31;55784;50.734;7.086;2023-08-07T03:10:21;13.85;86.84
68801;SHT31;55784;50.734;7.086;2023-08-07T03:12:46;13.80;86.88
68801;SHT31;55784;50.734;7.086;2023-08-07T03:15:11;13.79;87.25
68801;SHT31;55784;50.734;7.086;2023-08-07T03:17:37;13.82;87.51
68801;SHT31;55784;50.734;7.086;2023-08-07T03:20:03;13.83;86.71
68801;SHT31;55784;50.734;7.086;2023-08-07T03:22:31;13.76;86.74
68801;SHT31;55784;50.734;7.086;2023-08-07T03:24:56;13.78;87.37
68801;SHT31;55784;50.734;7.086;2023-08-07T03:27:22;13.73;86.86
68801;SHT31;55784;50.734;7.086;2023-08-07T03:29:47;13.70;87.05
68801;SHT31;55784;50.734;7.086;2023-08-07T03:32:12;13.68;88.02
68801;SHT31;55784;50.734;7.086;2023-08-07T03:34:38;13.65;88.13
68801;SHT31;55784;50.734;7.086;2023-08-07T03:37:03;13.62;88.71
68801;SHT31;55784;50.734;7.086;2023-08-07T03:39:29;13.59;88.44
68801;SHT31;55784;50.734;7.086;2023-08-07T03:41:54;13.62;88.45
68801;SHT31;55784;50.734;7.086;2023-08-07T03:44:19;13.63;89.08
68801;SHT31;55784;50.734;7.086;2023-08-07T03:46:45;13.57;88.99
68801;SHT31;55784;50.734;7.086;2023-08-07T03:49:10;13.48;89.60
68801;SHT31;55784;50.734;7.086;2023-08-07T03:51:35;13.47;90.03
68801;SHT31;55784;50.734;7.086;2023-08-07T03:54:01;13.39;90.70
68801;SHT31;55784;50.734;7.086;2023-08-07T03:56:26;13.32;90.75
68801;SHT31;55784;50.734;7.086;2023-08-07T03:58:51;13.34;91.11
68801;SHT31;55784;50.734;7.086;2023-08-07T04:01:17;13.29;90.65
68801;SHT31;55784;50.734;7.086;2023-08-07T04:03:42;13.32;90.60
68801;SHT31;55784;50.734;7.086;2023-08-07T04:06:08;13.35;90.17
68801;SHT31;55784;50.734;7.086;2023-08-07T04:08:33;13.35;90.32
68801;SHT31;55784;50.734;7.086;2023-08-07T04:11:05;13.34;89.84
68801;SHT31;55784;50.734;7.086;2023-08-07T04:13:30;13.31;90.17
68801;SHT31;55784;50.734;7.086;2023-08-07T04:15:56;13.32;90.26
68801;SHT31;55784;50.734;7.086;2023-08-07T04:18:22;13.24;90.69
68801;SHT31;55784;50.734;7.086;2023-08-07T04:20:49;13.22;91.15
68801;SHT31;55784;50.734;7.086;2023-08-07T04:23:15;13.15;91.85
68801;SHT31;55784;50.734;7.086;2023-08-07T04:25:40;13.07;92.62
68801;SHT31;55784;50.734;7.086;2023-08-07T04:28:05;13.01;92.84
68801;SHT31;55784;50.734;7.086;2023-08-07T04:30:31;12.95;92.76
68801;SHT31;55784;50.734;7.086;2023-08-07T04:32:56;12.98;92.74
68801;SHT31;55784;50.734;7.086;2023-08-07T04:35:21;13.04;92.97
68801;SHT31;55784;50.734;7.086;2023-08-07T04:37:47;13.12;92.76
68801;SHT31;55784;50.734;7.086;2023-08-07T04:40:12;13.14;92.31
68801;SHT31;55784;50.734;7.086;2023-08-07T04:42:38;13.18;91.98
68801;SHT31;55784;50.734;7.086;2023-08-07T04:45:03;13.21;91.71
68801;SHT31;55784;50.734;7.086;2023-08-07T04:47:29;13.25;91.08
68801;SHT31;55784;50.734;7.086;2023-08-07T04:49:54;13.28;90.79
68801;SHT31;55784;50.734;7.086;2023-08-07T04:52:19;13.32;90.18
68801;SHT31;55784;50.734;7.086;2023-08-07T04:54:45;13.34;89.83
68801;SHT31;55784;50.734;7.086;2023-08-07T04:57:10;13.38;89.65
68801;SHT31;55784;50.734;7.086;2023-08-07T04:59:35;13.42;89.26
68801;SHT31;55784;50.734;7.086;2023-08-07T05:02:01;13.42;89.03
68801;SHT31;55784;50.734;7.086;2023-08-07T05:04:26;13.45;89.12
68801;SHT31;55784;50.734;7.086;2023-08-07T05:06:51;13.45;88.76
68801;SHT31;55784;50.734;7.086;2023-08-07T05:09:16;13.48;88.64
68801;SHT31;55784;50.734;7.086;2023-08-07T05:11:42;13.54;88.54
68801;SHT31;55784;50.734;7.086;2023-08-07T05:14:07;13.55;88.41
68801;SHT31;55784;50.734;7.086;2023-08-07T05:16:32;13.61;87.99
68801;SHT31;55784;50.734;7.086;2023-08-07T05:18:58;13.63;87.88
68801;SHT31;55784;50.734;7.086;2023-08-07T05:21:23;13.68;87.81
68801;SHT31;55784;50.734;7.086;2023-08-07T05:23:48;13.70;87.05
68801;SHT31;55784;50.734;7.086;2023-08-07T05:26:18;13.75;87.06
68801;SHT31;55784;50.734;7.086;2023-08-07T05:28:43;13.78;86.61
68801;SHT31;55784;50.734;7.086;2023-08-07T05:31:09;13.79;86.44
68801;SHT31;55784;50.734;7.086;2023-08-07T05:33:34;13.79;86.25
68801;SHT31;55784;50.734;7.086;2023-08-07T05:35:59;13.83;86.23
68801;SHT31;55784;50.734;7.086;2023-08-07T05:38:25;13.85;86.10
68801;SHT31;55784;50.734;7.086;2023-08-07T05:40:50;13.90;86.15
68801;SHT31;55784;50.734;7.086;2023-08-07T05:43:16;13.95;86.16
68801;SHT31;55784;50.734;7.086;2023-08-07T05:45:42;13.98;85.93
68801;SHT31;55784;50.734;7.086;2023-08-07T05:48:10;14.02;85.42
68801;SHT31;55784;50.734;7.086;2023-08-07T05:50:35;14.02;85.40
68801;SHT31;55784;50.734;7.086;2023-08-07T05:53:00;14.03;85.01
68801;SHT31;55784;50.734;7.086;2023-08-07T05:55:26;14.08;84.90
68801;SHT31;55784;50.734;7.086;2023-08-07T05:57:51;14.14;84.83
68801;SHT31;55784;50.734;7.086;2023-08-07T06:00:16;14.10;84.60
68801;SHT31;55784;50.734;7.086;2023-08-07T06:02:44;14.10;84.46
68801;SHT31;55784;50.734;7.086;2023-08-07T06:05:09;14.14;84.87
68801;SHT31;55784;50.734;7.086;2023-08-07T06:07:37;14.19;84.25
68801;SHT31;55784;50.734;7.086;2023-08-07T06:10:03;14.20;84.05
68801;SHT31;55784;50.734;7.086;2023-08-07T06:12:28;14.23;84.11
68801;SHT31;55784;50.734;7.086;2023-08-07T06:14:54;14.24;84.07
68801;SHT31;55784;50.734;7.086;2023-08-07T06:17:19;14.23;83.83
68801;SHT31;55784;50.734;7.086;2023-08-07T06:19:44;14.23;83.85
68801;SHT31;55784;50.734;7.086;2023-08-07T06:22:10;14.21;83.84
68801;SHT31;55784;50.734;7.086;2023-08-07T06:24:35;14.13;83.29
68801;SHT31;55784;50.734;7.086;2023-08-07T06:27:02;14.13;83.72
68801;SHT31;55784;50.734;7.086;2023-08-07T06:29:27;14.19;83.84
68801;SHT31;55784;50.734;7.086;2023-08-07T06:31:53;14.14;83.38
68801;SHT31;55784;50.734;7.086;2023-08-07T06:34:18;14.14;83.80
68801;SHT31;55784;50.734;7.086;2023-08-07T06:36:44;14.12;83.89
68801;SHT31;55784;50.734;7.086;2023-08-07T06:39:09;14.10;83.83
68801;SHT31;55784;50.734;7.086;2023-08-07T06:41:35;14.05;84.76
68801;SHT31;55784;50.734;7.086;2023-08-07T06:44:01;13.93;84.49
68801;SHT31;55784;50.734;7.086;2023-08-07T06:46:26;13.95;84.93
68801;SHT31;55784;50.734;7.086;2023-08-07T06:48:53;13.85;85.80
68801;SHT31;55784;50.734;7.086;2023-08-07T06:51:18;13.83;87.09
68801;SHT31;55784;50.734;7.086;2023-08-07T06:53:44;13.76;87.53
68801;SHT31;55784;50.734;7.086;2023-08-07T06:56:09;13.69;88.67
68801;SHT31;55784;50.734;7.086;2023-08-07T06:58:34;13.66;88.56
68801;SHT31;55784;50.734;7.086;2023-08-07T07:01:00;13.68;88.86
68801;SHT31;55784;50.734;7.086;2023-08-07T07:03:25;13.54;89.74
68801;SHT31;55784;50.734;7.086;2023-08-07T07:05:50;13.49;90.13
68801;SHT31;55784;50.734;7.086;2023-08-07T07:08:16;13.51;90.42
68801;SHT31;55784;50.734;7.086;2023-08-07T07:10:41;13.48;89.88
68801;SHT31;55784;50.734;7.086;2023-08-07T07:13:06;13.39;90.66
68801;SHT31;55784;50.734;7.086;2023-08-07T07:15:34;13.39;90.01
68801;SHT31;55784;50.734;7.086;2023-08-07T07:18:00;13.44;90.30
68801;SHT31;55784;50.734;7.086;2023-08-07T07:20:26;13.44;90.43
68801;SHT31;55784;50.734;7.086;2023-08-07T07:22:52;13.52;90.11
68801;SHT31;55784;50.734;7.086;2023-08-07T07:25:17;13.57;90.04
68801;SHT31;55784;50.734;7.086;2023-08-07T07:27:42;13.55;90.60
68801;SHT31;55784;50.734;7.086;2023-08-07T07:30:08;13.48;90.07
68801;SHT31;55784;50.734;7.086;2023-08-07T07:32:34;13.51;90.46
68801;SHT31;55784;50.734;7.086;2023-08-07T07:34:59;13.52;90.49
68801;SHT31;55784;50.734;7.086;2023-08-07T07:37:24;13.58;91.43
68801;SHT31;55784;50.734;7.086;2023-08-07T07:39:49;13.72;90.02
68801;SHT31;55784;50.734;7.086;2023-08-07T07:42:15;13.75;90.19
68801;SHT31;55784;50.734;7.086;2023-08-07T07:44:40;13.85;89.51
68801;SHT31;55784;50.734;7.086;2023-08-07T07:47:06;13.93;89.24
68801;SHT31;55784;50.734;7.086;2023-08-07T07:49:33;13.93;88.47
68801;SHT31;55784;50.734;7.086;2023-08-07T07:52:06;14.02;88.76
68801;SHT31;55784;50.734;7.086;2023-08-07T07:54:34;14.10;87.99
68801;SHT31;55784;50.734;7.086;2023-08-07T07:57:00;14.13;87.46
68801;SHT31;55784;50.734;7.086;2023-08-07T07:59:28;14.23;87.60
68801;SHT31;55784;50.734;7.086;2023-08-07T08:01:53;14.26;87.26
68801;SHT31;55784;50.734;7.086;2023-08-07T08:04:19;14.36;86.43
68801;SHT31;55784;50.734;7.086;2023-08-07T08:06:44;14.38;86.51
68801;SHT31;55784;50.734;7.086;2023-08-07T08:09:10;14.37;85.70
68801;SHT31;55784;50.734;7.086;2023-08-07T08:11:35;14.45;86.30
68801;SHT31;55784;50.734;7.086;2023-08-07T08:14:00;14.64;85.95
68801;SHT31;55784;50.734;7.086;2023-08-07T08:16:25;14.54;85.67
68801;SHT31;55784;50.734;7.086;2023-08-07T08:18:51;14.41;85.53
68801;SHT31;55784;50.734;7.086;2023-08-07T08:21:16;14.59;85.89
68801;SHT31;55784;50.734;7.086;2023-08-07T08:23:41;14.63;85.74
68801;SHT31;55784;50.734;7.086;2023-08-07T08:26:07;14.80;85.58
68801;SHT31;55784;50.734;7.086;2023-08-07T08:28:32;14.65;85.38
68801;SHT31;55784;50.734;7.086;2023-08-07T08:30:57;14.71;85.22
68801;SHT31;55784;50.734;7.086;2023-08-07T08:33:23;14.80;85.18
68801;SHT31;55784;50.734;7.086;2023-08-07T08:35:48;14.82;85.18
68801;SHT31;55784;50.734;7.086;2023-08-07T08:38:13;14.81;84.48
68801;SHT31;55784;50.734;7.086;2023-08-07T08:40:39;14.95;84.20
68801;SHT31;55784;50.734;7.086;2023-08-07T08:43:05;15.05;84.08
68801;SHT31;55784;50.734;7.086;2023-08-07T08:45:32;15.12;83.63
68801;SHT31;55784;50.734;7.086;2023-08-07T08:48:02;15.24;82.77
68801;SHT31;55784;50.734;7.086;2023-08-07T08:50:29;15.36;82.33
68801;SHT31;55784;50.734;7.086;2023-08-07T08:52:56;15.49;81.76
68801;SHT31;55784;50.734;7.086;2023-08-07T08:55:22;15.76;82.02
68801;SHT31;55784;50.734;7.086;2023-08-07T08:57:49;15.67;81.13
68801;SHT31;55784;50.734;7.086;2023-08-07T09:00:19;15.74;82.86
68801;SHT31;55784;50.734;7.086;2023-08-07T09:02:49;15.59;83.24
68801;SHT31;55784;50.734;7.086;2023-08-07T09:05:16;15.57;83.77
68801;SHT31;55784;50.734;7.086;2023-08-07T09:07:42;15.67;83.13
68801;SHT31;55784;50.734;7.086;2023-08-07T09:10:09;15.67;83.00
68801;SHT31;55784;50.734;7.086;2023-08-07T09:12:37;15.73;82.18
68801;SHT31;55784;50.734;7.086;2023-08-07T09:15:06;15.86;81.11
68801;SHT31;55784;50.734;7.086;2023-08-07T09:17:35;16.03;80.77
68801;SHT31;55784;50.734;7.086;2023-08-07T09:20:02;16.11;79.71
68801;SHT31;55784;50.734;7.086;2023-08-07T09:22:29;16.55;79.61
68801;SHT31;55784;50.734;7.086;2023-08-07T09:24:55;16.62;77.87
68801;SHT31;55784;50.734;7.086;2023-08-07T09:27:21;16.58;77.07
68801;SHT31;55784;50.734;7.086;2023-08-07T09:29:46;16.59;77.12
68801;SHT31;55784;50.734;7.086;2023-08-07T09:32:13;16.99;77.08
68801;SHT31;55784;50.734;7.086;2023-08-07T09:34:39;17.19;76.22
68801;SHT31;55784;50.734;7.086;2023-08-07T09:37:07;16.73;76.30
68801;SHT31;55784;50.734;7.086;2023-08-07T09:39:32;16.71;76.16
68801;SHT31;55784;50.734;7.086;2023-08-07T09:41:57;16.45;76.83
68801;SHT31;55784;50.734;7.086;2023-08-07T09:44:23;16.31;76.94
68801;SHT31;55784;50.734;7.086;2023-08-07T09:46:48;16.21;77.99
68801;SHT31;55784;50.734;7.086;2023-08-07T09:49:14;16.16;77.90
68801;SHT31;55784;50.734;7.086;2023-08-07T09:51:43;16.06;78.06
68801;SHT31;55784;50.734;7.086;2023-08-07T09:54:09;16.03;78.45
68801;SHT31;55784;50.734;7.086;2023-08-07T09:56:35;16.18;78.36
68801;SHT31;55784;50.734;7.086;2023-08-07T09:59:00;16.34;78.14
68801;SHT31;55784;50.734;7.086;2023-08-07T10:01:26;16.37;78.93
68801;SHT31;55784;50.734;7.086;2023-08-07T10:03:51;16.35;79.37
68801;SHT31;55784;50.734;7.086;2023-08-07T10:06:17;16.16;79.55
68801;SHT31;55784;50.734;7.086;2023-08-07T10:08:44;16.31;79.75
68801;SHT31;55784;50.734;7.086;2023-08-07T10:11:11;16.32;79.72
68801;SHT31;55784;50.734;7.086;2023-08-07T10:13:37;16.57;79.77
68801;SHT31;55784;50.734;7.086;2023-08-07T10:16:03;16.57;77.95
68801;SHT31;55784;50.734;7.086;2023-08-07T10:18:29;16.68;77.96
68801;SHT31;55784;50.734;7.086;2023-08-07T10:20:55;16.59;77.75
68801;SHT31;55784;50.734;7.086;2023-08-07T10:23:22;16.47;77.42
68801;SHT31;55784;50.734;7.086;2023-08-07T10:25:50;16.37;78.58
68801;SHT31;55784;50.734;7.086;2023-08-07T10:28:17;16.54;78.02
68801;SHT31;55784;50.734;7.086;2023-08-07T10:30:43;16.79;77.40
68801;SHT31;55784;50.734;7.086;2023-08-07T10:33:10;17.02;77.05
68801;SHT31;55784;50.734;7.086;2023-08-07T10:35:36;17.32;76.13
68801;SHT31;55784;50.734;7.086;2023-08-07T10:38:09;17.47;75.25
68801;SHT31;55784;50.734;7.086;2023-08-07T10:41:09;17.66;73.05
68801;SHT31;55784;50.734;7.086;2023-08-07T10:43:43;18.18;72.98
68801;SHT31;55784;50.734;7.086;2023-08-07T10:46:14;18.14;70.58
68801;SHT31;55784;50.734;7.086;2023-08-07T10:48:47;18.34;70.43
68801;SHT31;55784;50.734;7.086;2023-08-07T10:51:19;18.75;69.74
68801;SHT31;55784;50.734;7.086;2023-08-07T10:53:48;18.51;67.67
68801;SHT31;55784;50.734;7.086;2023-08-07T10:56:33;18.60;68.92
68801;SHT31;55784;50.734;7.086;2023-08-07T10:59:11;18.77;69.30
68801;SHT31;55784;50.734;7.086;2023-08-07T11:04:07;18.44;69.98
68801;SHT31;55784;50.734;7.086;2023-08-07T11:06:34;18.39;69.57
68801;SHT31;55784;50.734;7.086;2023-08-07T11:09:01;18.52;70.18
68801;SHT31;55784;50.734;7.086;2023-08-07T11:11:29;18.85;68.15
68801;SHT31;55784;50.734;7.086;2023-08-07T11:13:54;18.85;67.83
68801;SHT31;55784;50.734;7.086;2023-08-07T11:16:20;19.07;67.77
68801;SHT31;55784;50.734;7.086;2023-08-07T11:18:47;18.86;66.36
68801;SHT31;55784;50.734;7.086;2023-08-07T11:21:12;18.55;66.02
68801;SHT31;55784;50.734;7.086;2023-08-07T11:23:39;18.59;66.41
68801;SHT31;55784;50.734;7.086;2023-08-07T11:26:04;18.75;65.69
68801;SHT31;55784;50.734;7.086;2023-08-07T11:28:30;18.66;66.18
68801;SHT31;55784;50.734;7.086;2023-08-07T11:30:56;18.75;66.85
68801;SHT31;55784;50.734;7.086;2023-08-07T11:33:25;18.59;66.50
68801;SHT31;55784;50.734;7.086;2023-08-07T11:35:51;18.41;67.40
68801;SHT31;55784;50.734;7.086;2023-08-07T11:38:38;18.69;66.85
68801;SHT31;55784;50.734;7.086;2023-08-07T11:41:06;18.90;65.49
68801;SHT31;55784;50.734;7.086;2023-08-07T11:43:33;18.90;64.90
68801;SHT31;55784;50.734;7.086;2023-08-07T11:46:01;19.06;63.98
68801;SHT31;55784;50.734;7.086;2023-08-07T11:48:27;19.28;63.06
68801;SHT31;55784;50.734;7.086;2023-08-07T11:50:53;19.51;63.29
68801;SHT31;55784;50.734;7.086;2023-08-07T11:53:20;19.54;62.22
68801;SHT31;55784;50.734;7.086;2023-08-07T11:55:53;19.50;62.23
68801;SHT31;55784;50.734;7.086;2023-08-07T11:58:19;19.38;63.44
68801;SHT31;55784;50.734;7.086;2023-08-07T12:00:45;19.43;62.40
68801;SHT31;55784;50.734;7.086;2023-08-07T12:03:49;19.44;62.35
68801;SHT31;55784;50.734;7.086;2023-08-07T12:06:14;19.64;61.61
68801;SHT31;55784;50.734;7.086;2023-08-07T12:08:41;19.51;60.07
68801;SHT31;55784;50.734;7.086;2023-08-07T12:11:08;19.51;59.42
68801;SHT31;55784;50.734;7.086;2023-08-07T12:13:37;19.71;59.18
68801;SHT31;55784;50.734;7.086;2023-08-07T12:16:03;19.64;59.70
68801;SHT31;55784;50.734;7.086;2023-08-07T12:18:32;19.85;61.51
68801;SHT31;55784;50.734;7.086;2023-08-07T12:21:04;20.18;60.96
68801;SHT31;55784;50.734;7.086;2023-08-07T12:23:33;20.39;60.15
68801;SHT31;55784;50.734;7.086;2023-08-07T12:25:58;20.28;57.99
68801;SHT31;55784;50.734;7.086;2023-08-07T12:28:24;20.01;58.76
68801;SHT31;55784;50.734;7.086;2023-08-07T12:30:50;19.64;57.32
68801;SHT31;55784;50.734;7.086;2023-08-07T12:33:16;19.77;58.77
68801;SHT31;55784;50.734;7.086;2023-08-07T12:35:42;19.88;57.33
68801;SHT31;55784;50.734;7.086;2023-08-07T12:38:07;19.96;58.00
68801;SHT31;55784;50.734;7.086;2023-08-07T12:40:34;20.15;57.18
68801;SHT31;55784;50.734;7.086;2023-08-07T12:43:02;20.32;56.78
68801;SHT31;55784;50.734;7.086;2023-08-07T12:45:27;20.26;57.36
68801;SHT31;55784;50.734;7.086;2023-08-07T12:47:52;20.11;57.18
68801;SHT31;55784;50.734;7.086;2023-08-07T12:50:18;20.28;57.44
68801;SHT31;55784;50.734;7.086;2023-08-07T12:52:43;20.05;59.24
68801;SHT31;55784;50.734;7.086;2023-08-07T12:55:09;19.96;57.71
68801;SHT31;55784;50.734;7.086;2023-08-07T12:57:35;20.13;57.73
68801;SHT31;55784;50.734;7.086;2023-08-07T13:00:00;20.22;58.44
68801;SHT31;55784;50.734;7.086;2023-08-07T13:02:25;20.36;57.49
68801;SHT31;55784;50.734;7.086;2023-08-07T13:04:51;20.43;58.04
68801;SHT31;55784;50.734;7.086;2023-08-07T13:07:19;20.63;58.26
68801;SHT31;55784;50.734;7.086;2023-08-07T13:09:45;20.83;59.31
68801;SHT31;55784;50.734;7.086;2023-08-07T13:12:10;20.64;58.45
68801;SHT31;55784;50.734;7.086;2023-08-07T13:14:35;20.57;60.38
68801;SHT31;55784;50.734;7.086;2023-08-07T13:17:01;20.49;59.39
68801;SHT31;55784;50.734;7.086;2023-08-07T13:19:26;20.57;60.96
68801;SHT31;55784;50.734;7.086;2023-08-07T13:21:51;20.86;60.62
68801;SHT31;55784;50.734;7.086;2023-08-07T13:24:17;20.52;62.25
68801;SHT31;55784;50.734;7.086;2023-08-07T13:26:42;20.76;61.75
68801;SHT31;55784;50.734;7.086;2023-08-07T13:29:13;20.39;61.03
68801;SHT31;55784;50.734;7.086;2023-08-07T13:31:38;20.29;61.19
68801;SHT31;55784;50.734;7.086;2023-08-07T13:34:04;20.50;61.39
68801;SHT31;55784;50.734;7.086;2023-08-07T13:36:37;20.79;61.18
68801;SHT31;55784;50.734;7.086;2023-08-07T13:39:05;20.90;60.33
68801;SHT31;55784;50.734;7.086;2023-08-07T13:41:31;21.18;59.86
68801;SHT31;55784;50.734;7.086;2023-08-07T13:43:57;20.90;59.38
68801;SHT31;55784;50.734;7.086;2023-08-07T13:46:23;21.11;59.52
68801;SHT31;55784;50.734;7.086;2023-08-07T13:48:48;20.96;60.06
68801;SHT31;55784;50.734;7.086;2023-08-07T13:51:14;21.12;60.43
68801;SHT31;55784;50.734;7.086;2023-08-07T13:53:39;20.93;59.62
68801;SHT31;55784;50.734;7.086;2023-08-07T13:56:05;20.88;58.17
68801;SHT31;55784;50.734;7.086;2023-08-07T13:58:31;20.57;58.68
68801;SHT31;55784;50.734;7.086;2023-08-07T14:00:57;20.90;59.34
68801;SHT31;55784;50.734;7.086;2023-08-07T14:03:22;20.76;58.70
68801;SHT31;55784;50.734;7.086;2023-08-07T14:05:48;20.64;58.89
68801;SHT31;55784;50.734;7.086;2023-08-07T14:08:15;20.74;59.09
68801;SHT31;55784;50.734;7.086;2023-08-07T14:10:40;20.69;60.12
68801;SHT31;55784;50.734;7.086;2023-08-07T14:13:06;20.35;60.64
68801;SHT31;55784;50.734;7.086;2023-08-07T14:15:31;20.13;60.67
68801;SHT31;55784;50.734;7.086;2023-08-07T14:17:56;19.88;61.24
68801;SHT31;55784;50.734;7.086;2023-08-07T14:20:22;19.79;64.21
68801;SHT31;55784;50.734;7.086;2023-08-07T14:22:49;19.64;63.36
68801;SHT31;55784;50.734;7.086;2023-08-07T14:25:14;19.83;62.16
68801;SHT31;55784;50.734;7.086;2023-08-07T14:27:39;20.37;61.46
68801;SHT31;55784;50.734;7.086;2023-08-07T14:30:05;20.54;59.93
68801;SHT31;55784;50.734;7.086;2023-08-07T14:32:31;20.54;59.53
68801;SHT31;55784;50.734;7.086;2023-08-07T14:34:56;20.25;59.75
68801;SHT31;55784;50.734;7.086;2023-08-07T14:37:21;20.46;59.57
68801;SHT31;55784;50.734;7.086;2023-08-07T14:39:47;20.39;60.13
68801;SHT31;55784;50.734;7.086;2023-08-07T14:42:12;20.35;59.81
68801;SHT31;55784;50.734;7.086;2023-08-07T14:44:37;20.32;60.24
68801;SHT31;55784;50.734;7.086;2023-08-07T14:47:03;20.57;59.18
68801;SHT31;55784;50.734;7.086;2023-08-07T14:49:28;20.67;57.98
68801;SHT31;55784;50.734;7.086;2023-08-07T14:51:54;20.63;58.05
68801;SHT31;55784;50.734;7.086;2023-08-07T14:54:19;20.60;57.11
68801;SHT31;55784;50.734;7.086;2023-08-07T14:56:45;20.39;57.61
68801;SHT31;55784;50.734;7.086;2023-08-07T14:59:10;20.30;57.18
68801;SHT31;55784;50.734;7.086;2023-08-07T15:01:35;20.32;57.29
68801;SHT31;55784;50.734;7.086;2023-08-07T15:04:01;20.22;57.22
68801;SHT31;55784;50.734;7.086;2023-08-07T15:06:26;20.28;57.05
68801;SHT31;55784;50.734;7.086;2023-08-07T15:08:51;20.49;57.35
68801;SHT31;55784;50.734;7.086;2023-08-07T15:11:17;20.56;57.35
68801;SHT31;55784;50.734;7.086;2023-08-07T15:13:42;20.54;57.95
68801;SHT31;55784;50.734;7.086;2023-08-07T15:16:07;20.46;57.54
68801;SHT31;55784;50.734;7.086;2023-08-07T15:18:33;20.33;57.85
68801;SHT31;55784;50.734;7.086;2023-08-07T15:20:59;20.52;58.02
68801;SHT31;55784;50.734;7.086;2023-08-07T15:23:26;20.43;58.74
68801;SHT31;55784;50.734;7.086;2023-08-07T15:25:51;20.36;59.31
68801;SHT31;55784;50.734;7.086;2023-08-07T15:28:16;20.28;60.07
68801;SHT31;55784;50.734;7.086;2023-08-07T15:30:49;19.79;60.43
68801;SHT31;55784;50.734;7.086;2023-08-07T15:33:15;19.78;61.10
68801;SHT31;55784;50.734;7.086;2023-08-07T15:35:41;19.83;60.81
68801;SHT31;55784;50.734;7.086;2023-08-07T15:38:07;20.06;60.51